Time;durP1;ratioP1;P1;durP2;ratioP2;P2;SDS_P1;SDS_P2;PMS_P1;PMS_P2;Temp;Humidity;BMP_temperature;BMP_pressure;BME280_temperature;BME280_humidity;BME280_pressure;Samples;Min_cycle;Max_cycle;Signal;HPM_P1;HPM_P2
2023/07/16 00:00:10;;;;;;;3.50;3.25;;;24.60;83.90;;;;;;5028026;28;20634;-73
2023/07/16 00:02:38;;;;;;;2.78;2.65;;;24.60;83.80;;;;;;5028909;28;20607;-73
2023/07/16 00:05:04;;;;;;;3.40;3.20;;;24.60;83.40;;;;;;5027475;28;20183;-72
2023/07/16 00:07:29;;;;;;;3.58;3.38;;;24.60;83.90;;;;;;5031797;28;20180;-73
2023/07/16 00:09:55;;;;;;;3.55;3.35;;;24.50;83.70;;;;;;5030303;28;20674;-73
2023/07/16 00:12:21;;;;;;;3.65;3.35;;;24.50;84.10;;;;;;5024674;28;20658;-73
2023/07/16 00:14:48;;;;;;;3.50;3.15;;;24.50;83.70;;;;;;5025442;28;20689;-73
2023/07/16 00:17:13;;;;;;;3.50;3.20;;;24.50;83.70;;;;;;5029497;28;20204;-73
2023/07/16 00:19:39;;;;;;;2.92;2.75;;;24.50;83.90;;;;;;5029372;28;20234;-73
2023/07/16 00:22:05;;;;;;;3.58;2.90;;;24.40;84.40;;;;;;5029758;28;20262;-73
2023/07/16 00:24:30;;;;;;;3.33;3.13;;;24.40;84.00;;;;;;5036972;28;20652;-73
2023/07/16 00:26:57;;;;;;;6.25;2.42;;;24.40;84.10;;;;;;5025515;28;20196;-73
2023/07/16 00:29:23;;;;;;;3.40;2.72;;;24.40;83.60;;;;;;5023738;28;20560;-73
2023/07/16 00:31:49;;;;;;;2.92;2.83;;;24.40;84.10;;;;;;5025468;28;20183;-74
2023/07/16 00:34:14;;;;;;;3.00;2.53;;;24.30;84.20;;;;;;5029178;28;20234;-74
2023/07/16 00:36:40;;;;;;;5.78;2.78;;;24.30;83.90;;;;;;5025774;28;20184;-73
2023/07/16 00:39:06;;;;;;;3.13;2.60;;;24.40;84.00;;;;;;5029067;28;20176;-73
2023/07/16 00:41:31;;;;;;;2.45;2.35;;;24.30;83.40;;;;;;5029264;28;20184;-73
2023/07/16 00:43:57;;;;;;;3.22;2.30;;;24.30;83.40;;;;;;5028756;28;20712;-73
2023/07/16 00:46:24;;;;;;;3.13;2.72;;;24.30;83.60;;;;;;5028223;28;20177;-73
2023/07/16 00:48:49;;;;;;;2.17;2.08;;;24.30;83.50;;;;;;5031127;28;20212;-74
2023/07/16 00:51:16;;;;;;;2.95;2.60;;;24.30;83.50;;;;;;5029115;28;20231;-73
2023/07/16 00:53:42;;;;;;;2.47;2.38;;;24.30;83.60;;;;;;5032142;28;20631;-73
2023/07/16 00:56:09;;;;;;;2.00;1.90;;;24.30;83.50;;;;;;5030028;28;20184;-73
2023/07/16 00:58:35;;;;;;;2.35;2.25;;;24.20;84.20;;;;;;5026960;28;20220;-73
2023/07/16 01:01:00;;;;;;;2.97;2.78;;;24.30;84.00;;;;;;5034471;28;20606;-73
2023/07/16 01:03:27;;;;;;;2.17;2.08;;;24.20;83.70;;;;;;5027384;28;20693;-73
2023/07/16 01:06:06;;;;;;;3.13;1.88;;;24.20;83.50;;;;;;5032727;28;20184;-73
2023/07/16 01:08:34;;;;;;;4.63;2.55;;;24.20;84.10;;;;;;5032593;28;20180;-73
2023/07/16 01:11:01;;;;;;;2.05;2.03;;;24.20;84.00;;;;;;5032509;28;20559;-73
2023/07/16 01:13:27;;;;;;;2.72;2.40;;;24.20;83.40;;;;;;5032589;28;20176;-73
2023/07/16 01:15:53;;;;;;;2.38;2.28;;;24.20;83.40;;;;;;5032173;28;20271;-73
2023/07/16 01:18:19;;;;;;;3.38;2.60;;;24.20;83.20;;;;;;5033001;28;20185;-73
2023/07/16 01:20:45;;;;;;;2.03;1.92;;;24.20;84.00;;;;;;5032548;28;20251;-73
2023/07/16 01:23:22;;;;;;;2.30;2.17;;;24.20;83.90;;;;;;5032516;28;20219;-73
2023/07/16 01:26:40;;;;;;;2.38;2.17;;;24.10;83.00;;;;;;5033058;28;20183;-73
2023/07/16 01:29:41;;;;;;;1.98;1.88;;;24.10;84.50;;;;;;5008147;28;20200;-73
2023/07/16 01:32:10;;;;;;;2.20;2.10;;;24.10;84.50;;;;;;5030993;28;20188;-73
2023/07/16 01:34:37;;;;;;;2.40;2.30;;;24.00;84.10;;;;;;5032643;28;20176;-73
2023/07/16 01:37:03;;;;;;;3.00;2.10;;;24.10;84.00;;;;;;5031137;28;20230;-73
2023/07/16 01:39:30;;;;;;;3.38;2.08;;;24.00;83.90;;;;;;5027459;28;20602;-73
2023/07/16 01:41:56;;;;;;;2.00;2.00;;;24.00;84.30;;;;;;5032404;28;20177;-73
2023/07/16 01:44:22;;;;;;;1.60;1.58;;;24.00;84.10;;;;;;5039776;28;20222;-73
2023/07/16 01:47:10;;;;;;;2.25;2.15;;;24.00;84.40;;;;;;5035130;28;20188;-73
2023/07/16 01:49:36;;;;;;;1.92;1.83;;;24.00;83.90;;;;;;5030535;28;20596;-73
2023/07/16 01:52:04;;;;;;;2.00;1.90;;;24.00;83.90;;;;;;5031889;28;20180;-73
2023/07/16 01:54:29;;;;;;;1.85;1.75;;;24.00;83.50;;;;;;5031651;28;20679;-74
2023/07/16 01:56:55;;;;;;;2.85;2.30;;;24.00;84.00;;;;;;5030830;28;20193;-74
2023/07/16 01:59:21;;;;;;;1.48;1.48;;;24.00;83.80;;;;;;5031839;28;20180;-74
2023/07/16 02:01:46;;;;;;;1.73;1.73;;;24.00;83.90;;;;;;5037671;28;20252;-73
2023/07/16 02:04:12;;;;;;;1.83;1.80;;;23.90;83.90;;;;;;5031664;28;20215;-74
2023/07/16 02:06:37;;;;;;;2.63;2.42;;;23.90;84.20;;;;;;5031505;28;20172;-73
2023/07/16 02:09:03;;;;;;;1.98;1.88;;;23.90;84.10;;;;;;5027238;28;20176;-74
2023/07/16 02:11:29;;;;;;;2.03;1.75;;;23.90;84.00;;;;;;5031698;28;20272;-74
2023/07/16 02:13:55;;;;;;;2.15;1.90;;;23.80;84.10;;;;;;5031273;28;20245;-74
2023/07/16 02:16:20;;;;;;;3.78;2.17;;;23.80;84.40;;;;;;5031381;28;20177;-74
2023/07/16 02:18:46;;;;;;;1.80;1.70;;;23.80;84.60;;;;;;5031117;28;20172;-73
2023/07/16 02:21:12;;;;;;;2.25;1.75;;;23.70;84.70;;;;;;5036217;28;20184;-73
2023/07/16 02:23:38;;;;;;;2.25;1.63;;;23.70;84.60;;;;;;5033657;28;20200;-73
2023/07/16 02:26:03;;;;;;;2.75;2.15;;;23.60;84.90;;;;;;5031145;28;20192;-73
2023/07/16 02:28:29;;;;;;;1.58;1.58;;;23.60;85.00;;;;;;5033232;28;20168;-73
2023/07/16 02:30:55;;;;;;;2.17;1.98;;;23.50;85.80;;;;;;5031261;28;20184;-73
2023/07/16 02:33:20;;;;;;;2.72;1.70;;;23.50;85.70;;;;;;5034050;28;20195;-73
2023/07/16 02:35:51;;;;;;;4.05;1.60;;;23.50;85.50;;;;;;5032146;28;20203;-74
2023/07/16 02:38:17;;;;;;;1.90;1.90;;;23.40;84.90;;;;;;5030292;28;20172;-73
2023/07/16 02:40:44;;;;;;;1.35;1.35;;;23.40;85.30;;;;;;5030353;28;20662;-73
2023/07/16 02:43:10;;;;;;;1.90;1.88;;;23.40;85.40;;;;;;5030793;28;20560;-73
2023/07/16 02:45:35;;;;;;;2.50;1.65;;;23.40;85.40;;;;;;5035453;28;20183;-73
2023/07/16 02:48:02;;;;;;;1.77;1.65;;;23.40;85.50;;;;;;5026911;28;20609;-73
2023/07/16 02:50:27;;;;;;;2.15;1.35;;;23.30;85.80;;;;;;5037531;28;20221;-74
2023/07/16 02:52:53;;;;;;;1.38;1.38;;;23.30;85.30;;;;;;5028407;28;20616;-72
2023/07/16 02:55:19;;;;;;;1.85;1.75;;;23.30;85.60;;;;;;5029325;28;20582;-72
2023/07/16 02:57:44;;;;;;;1.67;1.67;;;23.20;85.60;;;;;;5030350;28;20275;-74
2023/07/16 03:00:10;;;;;;;1.33;1.33;;;23.20;85.60;;;;;;5035280;28;20184;-74
2023/07/16 03:02:36;;;;;;;2.45;1.80;;;23.20;85.50;;;;;;5029191;28;20231;-73
2023/07/16 03:05:03;;;;;;;1.70;1.60;;;23.20;85.60;;;;;;5034372;28;20219;-73
2023/07/16 03:07:30;;;;;;;1.58;1.58;;;23.20;85.60;;;;;;5030355;28;20204;-74
2023/07/16 03:09:55;;;;;;;1.30;1.30;;;23.20;85.50;;;;;;5030719;28;20187;-73
2023/07/16 03:12:21;;;;;;;1.63;1.63;;;23.20;85.80;;;;;;5027228;28;20219;-73
2023/07/16 03:14:47;;;;;;;2.10;1.92;;;23.20;85.80;;;;;;5035828;28;20669;-74
2023/07/16 03:17:13;;;;;;;1.30;1.30;;;23.20;85.80;;;;;;5038373;28;20188;-73
2023/07/16 03:19:38;;;;;;;5.60;1.17;;;23.20;85.90;;;;;;5027681;28;20187;-74
2023/07/16 03:22:04;;;;;;;3.85;1.90;;;23.10;86.50;;;;;;5026727;28;20216;-74
2023/07/16 03:24:30;;;;;;;1.55;1.55;;;23.10;86.10;;;;;;5027730;28;20220;-73
2023/07/16 03:26:56;;;;;;;1.60;1.45;;;23.10;85.90;;;;;;5033650;28;20208;-74
2023/07/16 03:29:21;;;;;;;3.30;1.63;;;23.10;85.80;;;;;;5032426;28;20175;-73
2023/07/16 03:31:47;;;;;;;1.23;1.23;;;23.10;86.20;;;;;;5031694;28;20176;-74
2023/07/16 03:34:12;;;;;;;1.52;1.52;;;23.10;86.00;;;;;;5030232;28;20192;-74
2023/07/16 03:36:38;;;;;;;1.42;1.30;;;23.10;86.30;;;;;;5029867;28;20180;-73
2023/07/16 03:39:04;;;;;;;3.45;1.45;;;23.10;86.10;;;;;;5027306;28;20236;-73
2023/07/16 03:41:29;;;;;;;1.55;1.45;;;23.10;85.60;;;;;;5029612;28;20176;-73
2023/07/16 03:43:55;;;;;;;1.05;1.05;;;23.10;85.60;;;;;;5032253;28;20210;-73
2023/07/16 03:46:21;;;;;;;1.58;1.48;;;23.10;85.50;;;;;;5033178;28;20187;-73
2023/07/16 03:48:46;;;;;;;1.90;1.80;;;23.20;85.60;;;;;;5028326;28;20197;-73
2023/07/16 03:51:12;;;;;;;1.48;1.42;;;23.20;85.60;;;;;;5030403;28;20175;-73
2023/07/16 03:53:38;;;;;;;2.45;1.92;;;23.20;85.80;;;;;;5031550;28;20653;-73
2023/07/16 03:56:04;;;;;;;1.52;1.52;;;23.20;85.80;;;;;;5030855;28;20667;-73
2023/07/16 03:58:29;;;;;;;1.75;1.65;;;23.20;86.10;;;;;;5029909;28;20183;-73
2023/07/16 04:00:55;;;;;;;1.55;1.55;;;23.20;86.20;;;;;;5026897;28;20188;-73
2023/07/16 04:03:21;;;;;;;1.48;1.45;;;23.20;86.30;;;;;;5032027;28;20719;-74
2023/07/16 04:05:46;;;;;;;2.05;1.83;;;23.20;86.50;;;;;;5028498;28;20219;-73
2023/07/16 04:08:13;;;;;;;2.95;1.55;;;23.20;86.40;;;;;;5037179;28;20215;-74
2023/07/16 04:10:38;;;;;;;1.25;1.20;;;23.20;86.60;;;;;;5028161;28;20572;-73
2023/07/16 04:13:04;;;;;;;1.70;1.70;;;23.20;86.50;;;;;;5027200;28;20176;-73
2023/07/16 04:15:30;;;;;;;2.85;1.63;;;23.20;86.80;;;;;;5029498;28;20192;-74
2023/07/16 04:17:56;;;;;;;1.65;1.65;;;23.30;86.80;;;;;;5021013;28;20271;-74
2023/07/16 04:20:21;;;;;;;1.60;1.50;;;23.30;86.80;;;;;;5028063;28;20647;-73
2023/07/16 04:22:47;;;;;;;2.45;2.03;;;23.30;86.90;;;;;;5030938;28;20215;-73
2023/07/16 04:25:13;;;;;;;1.98;1.88;;;23.30;86.90;;;;;;5028753;28;20192;-74
2023/07/16 04:27:41;;;;;;;1.95;1.85;;;23.30;86.80;;;;;;5029647;28;20175;-74
2023/07/16 04:30:07;;;;;;;1.52;1.42;;;23.30;86.70;;;;;;5033329;28;20180;-73
2023/07/16 04:32:33;;;;;;;1.98;1.88;;;23.40;86.60;;;;;;5034052;28;20623;-74
2023/07/16 04:34:59;;;;;;;6.55;1.58;;;23.40;86.70;;;;;;5032127;28;20184;-73
2023/07/16 04:37:24;;;;;;;2.75;1.67;;;23.40;86.90;;;;;;5033151;28;20233;-74
2023/07/16 04:39:50;;;;;;;1.67;1.58;;;23.40;87.00;;;;;;5029113;28;20245;-74
2023/07/16 04:42:16;;;;;;;2.13;2.03;;;23.40;86.70;;;;;;5037230;28;20196;-74
2023/07/16 04:44:42;;;;;;;2.45;2.25;;;23.50;86.90;;;;;;5032472;28;20215;-74
2023/07/16 04:47:08;;;;;;;1.65;1.65;;;23.50;86.50;;;;;;5029199;28;20203;-74
2023/07/16 04:49:36;;;;;;;2.15;2.03;;;23.50;86.50;;;;;;5039973;28;20196;-74
2023/07/16 04:52:02;;;;;;;2.33;2.25;;;23.60;86.60;;;;;;5040288;28;20179;-74
2023/07/16 04:54:27;;;;;;;3.95;1.92;;;23.60;86.30;;;;;;5032099;28;20314;-74
2023/07/16 04:56:53;;;;;;;2.00;2.00;;;23.60;86.30;;;;;;5032827;28;20196;-74
2023/07/16 04:59:18;;;;;;;3.85;2.08;;;23.70;86.10;;;;;;5031661;28;20188;-72
2023/07/16 05:01:44;;;;;;;2.75;2.33;;;23.70;86.10;;;;;;5035450;28;20183;-73
2023/07/16 05:04:10;;;;;;;2.38;2.25;;;23.70;86.10;;;;;;5035704;28;20227;-74
2023/07/16 05:06:35;;;;;;;1.70;1.70;;;23.80;86.00;;;;;;5029184;28;20172;-72
2023/07/16 05:09:01;;;;;;;1.63;1.55;;;23.80;85.90;;;;;;5033505;28;20188;-73
2023/07/16 05:11:27;;;;;;;1.98;1.90;;;23.80;86.00;;;;;;5034136;28;20188;-73
2023/07/16 05:13:52;;;;;;;2.65;2.03;;;23.90;85.90;;;;;;5031910;28;20184;-73
2023/07/16 05:16:18;;;;;;;2.78;1.90;;;23.90;85.60;;;;;;5042762;28;20178;-74
2023/07/16 05:18:43;;;;;;;1.70;1.45;;;23.90;85.50;;;;;;5035556;28;20176;-74
2023/07/16 05:21:09;;;;;;;2.53;1.92;;;23.90;85.40;;;;;;5032161;28;20191;-74
2023/07/16 05:23:35;;;;;;;1.90;1.90;;;24.00;85.40;;;;;;5034564;28;20618;-74
2023/07/16 05:26:00;;;;;;;1.98;1.80;;;24.00;85.20;;;;;;5028891;28;20184;-74
2023/07/16 05:28:26;;;;;;;1.63;1.63;;;24.10;85.50;;;;;;5038017;28;20203;-73
2023/07/16 05:31:01;;;;;;;1.90;1.85;;;24.10;85.20;;;;;;5033544;28;20184;-73
2023/07/16 05:33:26;;;;;;;1.52;1.50;;;24.10;84.50;;;;;;5035594;28;20187;-73
2023/07/16 05:35:52;;;;;;;1.75;1.73;;;24.20;85.00;;;;;;5033304;28;20188;-74
2023/07/16 05:38:18;;;;;;;2.20;1.98;;;24.20;84.90;;;;;;5031389;28;20193;-73
2023/07/16 05:40:43;;;;;;;2.75;1.80;;;24.20;84.80;;;;;;5033907;28;20573;-74
2023/07/16 05:43:09;;;;;;;1.60;1.60;;;24.30;84.60;;;;;;5029320;28;20208;-74
2023/07/16 05:45:35;;;;;;;1.52;1.42;;;24.30;84.30;;;;;;5034670;28;20171;-74
2023/07/16 05:48:00;;;;;;;1.98;1.92;;;24.40;84.20;;;;;;5032462;28;20234;-74
2023/07/16 05:50:26;;;;;;;1.65;1.65;;;24.40;84.40;;;;;;5037341;28;20282;-74
2023/07/16 05:52:51;;;;;;;1.42;1.42;;;24.50;84.00;;;;;;5033049;28;20288;-74
2023/07/16 05:55:17;;;;;;;2.10;2.00;;;24.50;84.00;;;;;;5029502;28;20168;-74
2023/07/16 05:57:43;;;;;;;2.78;1.90;;;24.60;83.80;;;;;;5038202;28;20750;-74
2023/07/16 06:00:10;;;;;;;1.90;1.80;;;24.60;83.90;;;;;;5035743;28;20176;-73
2023/07/16 06:02:36;;;;;;;2.40;1.77;;;24.70;83.50;;;;;;5030345;28;20538;-73
2023/07/16 06:05:01;;;;;;;1.50;1.50;;;24.70;83.60;;;;;;5034463;28;20199;-73
2023/07/16 06:07:27;;;;;;;1.83;1.73;;;24.80;83.10;;;;;;5030094;28;20191;-73
2023/07/16 06:09:52;;;;;;;7.00;2.17;;;24.80;83.10;;;;;;5028187;28;20180;-74
2023/07/16 06:12:18;;;;;;;2.13;1.75;;;24.80;83.20;;;;;;5031569;28;20317;-74
2023/07/16 06:14:44;;;;;;;1.83;1.83;;;24.90;82.80;;;;;;5029787;28;20609;-73
2023/07/16 06:17:09;;;;;;;2.25;1.80;;;24.90;83.10;;;;;;5028726;28;20188;-73
2023/07/16 06:19:35;;;;;;;4.15;2.03;;;25.00;82.90;;;;;;5032393;28;20179;-73
2023/07/16 06:22:00;;;;;;;2.35;1.65;;;25.00;82.90;;;;;;5030989;28;20186;-73
2023/07/16 06:24:26;;;;;;;1.45;1.45;;;25.00;82.70;;;;;;5029924;28;20363;-73
2023/07/16 06:26:52;;;;;;;2.15;2.05;;;25.10;82.50;;;;;;5036384;28;20204;-72
2023/07/16 06:29:17;;;;;;;1.70;1.63;;;25.10;82.10;;;;;;5032892;28;20199;-73
2023/07/16 06:31:53;;;;;;;2.45;2.22;;;25.20;82.30;;;;;;5029424;28;20169;-74
2023/07/16 06:34:19;;;;;;;2.60;2.00;;;25.30;81.90;;;;;;5015212;28;20185;-72
2023/07/16 06:36:45;;;;;;;1.92;1.83;;;25.30;81.90;;;;;;5026401;28;20189;-72
2023/07/16 06:39:10;;;;;;;2.65;2.22;;;25.40;81.80;;;;;;5027397;28;20177;-71
2023/07/16 06:41:36;;;;;;;2.05;1.95;;;25.40;81.80;;;;;;5031697;28;20184;-73
2023/07/16 06:44:02;;;;;;;1.80;1.70;;;25.50;81.40;;;;;;5032836;28;20208;-74
2023/07/16 06:46:27;;;;;;;2.13;2.03;;;25.50;81.30;;;;;;5027402;28;20189;-75
2023/07/16 06:48:53;;;;;;;2.70;2.58;;;25.60;81.90;;;;;;5028401;28;20180;-75
2023/07/16 06:51:19;;;;;;;2.38;2.08;;;;;;;;;;5026978;28;20172;-76
2023/07/16 06:53:45;;;;;;;2.50;2.40;;;25.70;81.50;;;;;;5025082;28;20239;-75
2023/07/16 06:56:11;;;;;;;2.20;2.10;;;;;;;;;;5029575;28;20184;-74
2023/07/16 06:58:37;;;;;;;2.47;1.45;;;;;;;;;;5030647;28;20196;-76
2023/07/16 07:01:03;;;;;;;2.58;1.83;;;;;;;;;;5026775;28;20287;-76
2023/07/16 07:03:29;;;;;;;1.50;1.50;;;;;;;;;;5027413;28;20303;-76
2023/07/16 07:05:55;;;;;;;2.08;1.98;;;;;;;;;;5024430;28;20207;-75
2023/07/16 07:08:21;;;;;;;4.32;1.90;;;;;;;;;;5031165;28;20234;-75
2023/07/16 07:10:50;;;;;;;1.73;1.65;;;26.20;80.60;;;;;;5025646;28;20185;-78
2023/07/16 07:13:15;;;;;;;1.90;1.88;;;26.20;81.10;;;;;;5026155;28;20176;-75
2023/07/16 07:15:42;;;;;;;2.40;2.28;;;26.20;80.80;;;;;;5030057;28;20234;-75
2023/07/16 07:18:08;;;;;;;1.85;1.83;;;;;;;;;;5031496;28;20186;-75
2023/07/16 07:20:33;;;;;;;2.20;2.10;;;26.40;80.30;;;;;;5031601;28;20226;-75
2023/07/16 07:23:02;;;;;;;1.80;1.70;;;;;;;;;;5024527;28;20228;-75
2023/07/16 07:25:28;;;;;;;2.85;2.65;;;26.60;80.30;;;;;;5024594;28;20181;-75
2023/07/16 07:27:53;;;;;;;2.50;2.40;;;26.60;81.10;;;;;;5031549;28;20680;-75
2023/07/16 07:30:19;;;;;;;2.67;2.58;;;26.60;80.40;;;;;;5029442;28;20264;-75
2023/07/16 07:32:45;;;;;;;2.40;2.30;;;26.70;80.30;;;;;;5026361;28;20226;-74
2023/07/16 07:35:11;;;;;;;2.80;2.70;;;26.70;79.80;;;;;;5020899;28;20177;-74
2023/07/16 07:37:37;;;;;;;2.17;2.05;;;26.80;79.80;;;;;;5031135;28;20187;-75
2023/07/16 07:40:03;;;;;;;2.40;2.17;;;26.80;79.00;;;;;;5030396;28;20215;-74
2023/07/16 07:42:29;;;;;;;2.22;2.13;;;26.90;78.70;;;;;;5030380;28;20183;-75
2023/07/16 07:44:55;;;;;;;2.38;2.28;;;26.90;79.00;;;;;;5023194;28;20756;-74
2023/07/16 07:47:21;;;;;;;1.80;1.80;;;27.00;79.10;;;;;;5019050;28;20184;-75
2023/07/16 07:49:47;;;;;;;4.85;3.45;;;27.10;78.70;;;;;;5025374;28;20223;-75
2023/07/16 07:52:12;;;;;;;3.20;3.05;;;27.10;77.20;;;;;;5021186;28;20180;-75
2023/07/16 07:54:38;;;;;;;3.22;2.97;;;27.10;76.80;;;;;;5021099;28;20658;-75
2023/07/16 07:57:05;;;;;;;2.53;2.42;;;27.20;77.90;;;;;;5023653;28;20245;-74
2023/07/16 07:59:31;;;;;;;3.17;2.90;;;27.20;78.10;;;;;;5028782;28;20625;-74
2023/07/16 08:01:58;;;;;;;2.60;2.50;;;27.40;78.10;;;;;;5026026;28;20211;-75
2023/07/16 08:04:24;;;;;;;2.17;2.08;;;27.40;77.80;;;;;;5029736;28;20216;-75
2023/07/16 08:06:51;;;;;;;9.20;3.33;;;27.50;77.70;;;;;;5032887;28;20272;-75
2023/07/16 08:09:17;;;;;;;3.92;3.15;;;27.60;76.70;;;;;;5031717;28;20195;-75
2023/07/16 08:11:43;;;;;;;3.00;2.80;;;27.60;76.90;;;;;;5029835;28;20183;-76
2023/07/16 08:14:09;;;;;;;3.00;2.80;;;27.70;76.80;;;;;;5032372;28;20696;-75
2023/07/16 08:16:34;;;;;;;2.75;2.65;;;27.80;76.90;;;;;;5035906;28;20210;-75
2023/07/16 08:19:00;;;;;;;3.40;3.20;;;27.90;76.80;;;;;;5032428;28;20200;-75
2023/07/16 08:21:25;;;;;;;2.75;2.53;;;27.90;76.50;;;;;;5025944;28;20197;-75
2023/07/16 08:23:52;;;;;;;2.95;2.80;;;28.00;76.40;;;;;;5033951;28;20215;-74
2023/07/16 08:26:17;;;;;;;3.20;3.00;;;28.00;75.60;;;;;;5032472;28;20259;-74
2023/07/16 08:28:43;;;;;;;5.47;2.65;;;28.20;75.80;;;;;;5025916;28;20259;-72
2023/07/16 08:31:15;;;;;;;2.95;2.75;;;28.30;76.10;;;;;;5034225;28;20172;-73
2023/07/16 08:33:41;;;;;;;3.15;3.05;;;28.30;75.10;;;;;;5035124;28;20211;-74
2023/07/16 08:36:07;;;;;;;3.25;3.10;;;28.30;75.20;;;;;;5031835;28;20266;-74
2023/07/16 08:38:33;;;;;;;4.57;3.13;;;28.40;75.60;;;;;;5034171;28;20184;-74
2023/07/16 08:41:00;;;;;;;3.10;2.72;;;28.50;76.00;;;;;;5032260;28;20184;-73
2023/07/16 08:43:27;;;;;;;3.15;3.03;;;28.50;75.30;;;;;;5034709;28;20249;-74
2023/07/16 08:45:52;;;;;;;3.05;3.03;;;28.60;75.10;;;;;;5032472;28;20180;-73
2023/07/16 08:48:18;;;;;;;3.47;3.17;;;28.60;74.40;;;;;;5033499;28;20172;-74
2023/07/16 08:50:47;;;;;;;3.17;3.08;;;28.80;75.40;;;;;;5033201;28;20780;-74
2023/07/16 08:53:15;;;;;;;3.13;3.03;;;28.80;75.20;;;;;;5037674;28;20192;-73
2023/07/16 08:55:41;;;;;;;3.88;3.38;;;28.90;74.50;;;;;;5031567;28;20629;-74
2023/07/16 08:58:07;;;;;;;3.25;3.13;;;29.00;74.70;;;;;;5026988;28;20196;-74
2023/07/16 09:00:33;;;;;;;4.10;3.88;;;29.10;74.90;;;;;;5027877;28;20187;-72
2023/07/16 09:02:59;;;;;;;3.97;3.65;;;29.20;73.90;;;;;;5026870;28;20314;-74
2023/07/16 09:05:25;;;;;;;3.38;3.28;;;29.30;74.20;;;;;;5026066;28;20677;-73
2023/07/16 09:07:51;;;;;;;3.92;3.35;;;29.30;74.10;;;;;;5032408;28;20180;-74
2023/07/16 09:10:18;;;;;;;3.25;3.15;;;29.50;73.80;;;;;;5030527;28;20195;-74
2023/07/16 09:12:45;;;;;;;4.72;3.63;;;29.60;73.20;;;;;;5032539;28;20269;-75
2023/07/16 09:15:13;;;;;;;4.40;4.05;;;29.70;72.90;;;;;;5035186;28;20183;-74
2023/07/16 09:17:39;;;;;;;4.00;3.70;;;29.70;72.10;;;;;;5029218;28;20177;-73
2023/07/16 09:20:06;;;;;;;4.60;3.67;;;29.80;72.40;;;;;;5024134;28;20191;-72
2023/07/16 09:22:33;;;;;;;4.05;3.75;;;30.00;73.80;;;;;;5026738;28;20514;-72
2023/07/16 09:25:01;;;;;;;4.07;3.85;;;30.00;72.80;;;;;;5022744;28;20191;-72
2023/07/16 09:27:31;;;;;;;4.35;3.95;;;30.10;72.00;;;;;;5028816;28;20190;-74
2023/07/16 09:29:58;;;;;;;4.32;4.13;;;30.10;70.50;;;;;;5025235;28;20188;-74
2023/07/16 09:32:33;;;;;;;4.30;4.00;;;30.10;70.20;;;;;;5030290;28;20228;-74
2023/07/16 09:34:59;;;;;;;4.00;3.70;;;30.10;69.90;;;;;;5029275;28;20664;-73
2023/07/16 09:37:26;;;;;;;7.05;4.65;;;30.10;71.00;;;;;;5026086;28;20192;-72
2023/07/16 09:39:51;;;;;;;4.70;4.43;;;30.20;71.60;;;;;;5021564;28;20274;-73
2023/07/16 09:42:19;;;;;;;3.65;3.55;;;30.30;72.50;;;;;;5015916;28;20658;-73
2023/07/16 09:44:45;;;;;;;5.35;4.93;;;30.40;72.80;;;;;;5020531;28;20200;-73
2023/07/16 09:47:10;;;;;;;4.75;4.50;;;30.60;70.90;;;;;;5025615;28;20800;-71
2023/07/16 09:49:36;;;;;;;7.65;4.68;;;30.70;70.20;;;;;;5028597;28;20238;-71
2023/07/16 09:52:02;;;;;;;6.95;4.45;;;30.90;70.70;;;;;;5023474;28;20216;-71
2023/07/16 09:54:32;;;;;;;4.85;4.47;;;30.90;70.40;;;;;;5030542;28;20183;-71
2023/07/16 09:57:00;;;;;;;4.45;4.20;;;31.10;70.90;;;;;;5035180;28;20727;-71
2023/07/16 09:59:32;;;;;;;5.05;4.70;;;31.30;69.40;;;;;;5029521;28;20231;-71
2023/07/16 10:01:58;;;;;;;5.40;4.88;;;31.40;69.30;;;;;;5027732;28;20203;-72
2023/07/16 10:04:24;;;;;;;5.70;5.07;;;31.60;69.20;;;;;;5023607;28;20667;-71
2023/07/16 10:06:58;;;;;;;8.55;4.75;;;31.80;68.20;;;;;;5023388;28;20267;-71
2023/07/16 10:09:33;;;;;;;5.28;4.78;;;32.00;68.40;;;;;;5016332;28;20665;-71
2023/07/16 10:12:14;;;;;;;4.97;4.57;;;32.10;66.60;;;;;;5024256;28;20183;-71
2023/07/16 10:14:50;;;;;;;6.03;5.13;;;32.10;66.10;;;;;;5026048;28;20183;-71
2023/07/16 10:17:20;;;;;;;4.63;4.32;;;32.20;67.10;;;;;;5025696;28;20188;-71
2023/07/16 10:19:46;;;;;;;5.38;4.93;;;32.50;67.60;;;;;;5035779;28;20176;-71
2023/07/16 10:22:12;;;;;;;5.32;5.03;;;32.70;67.40;;;;;;5030219;28;20186;-71
2023/07/16 10:24:39;;;;;;;5.10;4.78;;;33.00;66.80;;;;;;5030069;28;20219;-70
2023/07/16 10:27:05;;;;;;;4.78;4.50;;;33.40;65.50;;;;;;5026332;28;20217;-71
2023/07/16 10:29:30;;;;;;;4.85;4.63;;;33.80;65.40;;;;;;5030043;28;20184;-70
2023/07/16 10:32:01;;;;;;;5.03;4.72;;;34.20;64.60;;;;;;5027770;28;20669;-70
2023/07/16 10:34:27;;;;;;;5.25;4.55;;;34.50;63.80;;;;;;5026768;28;20173;-70
2023/07/16 10:36:53;;;;;;;6.13;5.55;;;34.90;62.70;;;;;;5031161;28;20587;-70
2023/07/16 10:39:18;;;;;;;5.75;4.82;;;35.30;62.20;;;;;;5026373;28;20191;-71
2023/07/16 10:41:44;;;;;;;5.22;4.93;;;35.70;62.10;;;;;;5026773;28;20206;-70
2023/07/16 10:44:12;;;;;;;4.30;4.10;;;36.10;62.80;;;;;;5022645;28;20298;-71
2023/07/16 10:46:38;;;;;;;5.32;4.80;;;36.50;61.40;;;;;;5056679;28;21211;-72
2023/07/16 10:49:04;;;;;;;4.93;4.65;;;37.00;59.60;;;;;;5028370;28;20180;-72
2023/07/16 10:51:29;;;;;;;5.68;4.78;;;37.50;58.70;;;;;;5026957;28;20225;-72
2023/07/16 10:53:56;;;;;;;5.40;5.03;;;38.10;60.40;;;;;;5029228;28;20187;-72
2023/07/16 10:56:22;;;;;;;5.95;5.05;;;38.50;57.10;;;;;;5038109;28;20645;-71
2023/07/16 10:58:48;;;;;;;4.75;4.55;;;38.90;56.20;;;;;;5025913;28;20198;-72
2023/07/16 11:01:14;;;;;;;5.50;5.20;;;39.30;54.50;;;;;;5020786;28;20189;-72
2023/07/16 11:03:40;;;;;;;5.15;4.82;;;39.50;52.60;;;;;;5027720;28;20295;-75
2023/07/16 11:06:07;;;;;;;5.68;5.18;;;39.90;52.70;;;;;;5028387;28;20259;-75
2023/07/16 11:08:33;;;;;;;4.85;4.55;;;40.30;52.30;;;;;;5027918;28;20183;-74
2023/07/16 11:10:58;;;;;;;5.63;5.10;;;40.90;51.20;;;;;;5018983;28;20641;-74
2023/07/16 11:13:28;;;;;;;5.00;4.63;;;41.30;52.00;;;;;;5025057;28;20192;-75
2023/07/16 11:15:54;;;;;;;6.00;5.38;;;41.50;53.80;;;;;;5022174;28;20202;-76
2023/07/16 11:18:26;;;;;;;6.03;5.03;;;41.60;51.10;;;;;;5026724;28;20176;-76
2023/07/16 11:20:53;;;;;;;4.80;4.50;;;41.70;50.30;;;;;;5024568;28;20180;-75
2023/07/16 11:23:19;;;;;;;4.80;4.60;;;41.90;50.70;;;;;;5029517;28;20219;-75
2023/07/16 11:25:48;;;;;;;4.95;4.72;;;42.10;49.30;;;;;;5028988;28;20195;-73
2023/07/16 11:28:15;;;;;;;5.13;4.65;;;42.50;49.20;;;;;;5021172;28;20183;-74
2023/07/16 11:30:40;;;;;;;6.03;5.22;;;42.60;48.90;;;;;;5023072;28;20849;-74
2023/07/16 11:33:12;;;;;;;5.07;4.72;;;42.80;49.30;;;;;;5024014;28;20192;-77
2023/07/16 11:35:39;;;;;;;5.35;4.90;;;42.90;50.20;;;;;;5027310;28;20613;-75
2023/07/16 11:38:08;;;;;;;5.30;4.95;;;43.20;50.60;;;;;;5020531;28;20230;-74
2023/07/16 11:40:35;;;;;;;5.00;4.57;;;43.50;49.40;;;;;;5021825;28;20185;-74
2023/07/16 11:43:13;;;;;;;4.63;4.32;;;43.80;48.00;;;;;;5019275;28;20210;-76
2023/07/16 11:45:39;;;;;;;4.55;4.35;;;44.10;47.40;;;;;;5019504;28;20183;-75
2023/07/16 11:48:05;;;;;;;4.95;4.75;;;44.20;47.40;;;;;;5022599;28;20247;-74
2023/07/16 11:50:31;;;;;;;7.13;4.65;;;44.30;46.90;;;;;;5022487;28;20238;-73
2023/07/16 11:53:03;;;;;;;4.22;4.03;;;44.60;46.60;;;;;;5019768;28;20565;-73
2023/07/16 11:55:29;;;;;;;5.68;5.03;;;44.90;46.70;;;;;;5022041;28;20259;-73
2023/07/16 11:57:56;;;;;;;5.13;4.88;;;45.10;45.30;;;;;;5020891;28;20283;-72
2023/07/16 12:00:22;;;;;;;5.32;5.13;;;45.00;45.30;;;;;;5019464;28;20574;-72
2023/07/16 12:02:51;;;;;;;5.15;4.85;;;44.70;46.30;;;;;;5028353;28;20175;-72
2023/07/16 12:05:27;;;;;;;5.20;4.78;;;44.60;46.00;;;;;;5022606;28;21376;-72
2023/07/16 12:07:53;;;;;;;6.00;5.63;;;44.50;48.80;;;;;;5034276;28;20239;-72
2023/07/16 12:10:18;;;;;;;5.15;4.85;;;44.60;46.70;;;;;;5017346;28;20186;-73
2023/07/16 12:12:44;;;;;;;5.35;5.03;;;44.80;48.30;;;;;;5042646;28;20187;-72
2023/07/16 12:15:10;;;;;;;5.68;4.90;;;44.90;49.70;;;;;;5019477;28;20195;-72
2023/07/16 12:17:36;;;;;;;5.43;5.22;;;45.10;46.50;;;;;;5031383;28;20184;-73
2023/07/16 12:20:03;;;;;;;5.50;5.20;;;45.20;47.10;;;;;;5021604;28;20265;-75
2023/07/16 12:22:30;;;;;;;5.55;5.05;;;45.50;49.50;;;;;;5021178;28;20191;-76
2023/07/16 12:24:55;;;;;;;5.32;5.10;;;45.60;45.80;;;;;;5023676;28;20223;-75
2023/07/16 12:27:21;;;;;;;5.53;5.05;;;45.80;46.00;;;;;;5023171;28;20880;-75
2023/07/16 12:29:47;;;;;;;4.97;4.72;;;46.00;46.00;;;;;;5024638;28;20632;-75
2023/07/16 12:32:14;;;;;;;5.38;4.18;;;46.10;48.50;;;;;;5030249;28;20191;-76
2023/07/16 12:34:40;;;;;;;4.78;4.57;;;46.00;45.60;;;;;;5027469;28;20172;-75
2023/07/16 12:37:06;;;;;;;4.90;4.70;;;45.80;46.30;;;;;;5026227;28;20562;-75
2023/07/16 12:39:32;;;;;;;4.65;4.45;;;45.80;45.70;;;;;;5023881;28;20853;-75
2023/07/16 12:41:58;;;;;;;4.78;4.57;;;46.00;43.50;;;;;;5025888;28;20258;-75
2023/07/16 12:44:23;;;;;;;4.50;4.30;;;45.80;44.90;;;;;;5028864;28;20200;-75
2023/07/16 12:46:49;;;;;;;7.10;5.00;;;45.90;49.80;;;;;;5029001;28;20171;-75